Time;durP1;ratioP1;P1;durP2;ratioP2;P2;SDS_P1;SDS_P2;PMS_P1;PMS_P2;Temp;Humidity;BMP_temperature;BMP_pressure;BME280_temperature;BME280_humidity;BME280_pressure;Samples;Min_cycle;Max_cycle;Signal;HPM_P1;HPM_P2
2022/03/05 00:04:21;;;;;;;24.92;12.90;;;;;;;;;;5193095;27;20481;-77
2022/03/05 00:06:49;;;;;;;32.20;13.73;;;;;;;;;;5173525;27;20538;-78
2022/03/05 00:09:15;;;;;;;25.13;12.55;;;;;;;;;;5152917;27;20199;-78
2022/03/05 00:11:41;;;;;;;28.25;13.25;;;;;;;;;;5148982;27;20553;-76
2022/03/05 00:14:07;;;;;;;24.65;12.00;;;;;;;;;;5139338;27;20198;-79
2022/03/05 00:16:33;;;;;;;25.15;12.90;;;;;;;;;;5085325;28;20212;-77
2022/03/05 00:18:59;;;;;;;26.43;13.27;;;;;;;;;;5109565;28;20643;-77
2022/03/05 00:21:25;;;;;;;26.30;12.03;;;;;;;;;;5101530;28;20433;-77
2022/03/05 00:23:51;;;;;;;25.13;12.82;;;;;;;;;;4985775;28;20517;-78
2022/03/05 00:28:18;;;;;;;27.92;13.38;;;;;;;;;;5193189;27;20481;-77
2022/03/05 00:30:45;;;;;;;24.90;13.50;;;;;;;;;;5186902;27;20202;-75
2022/03/05 00:33:11;;;;;;;27.70;12.95;;;;;;;;;;5185038;27;20209;-78
2022/03/05 00:35:37;;;;;;;27.73;14.20;;;;;;;;;;5167002;27;20606;-79
2022/03/05 00:38:03;;;;;;;32.45;13.85;;;;;;;;;;5102903;28;20196;-78
2022/03/05 00:40:29;;;;;;;30.77;13.75;;;;;;;;;;5050834;28;20190;-79
2022/03/05 00:42:55;;;;;;;30.90;13.82;;;;;;;;;;5014563;28;20273;-76
2022/03/05 00:45:21;;;;;;;30.30;13.18;;;;;;;;;;4924757;28;20209;-76
2022/03/05 00:47:47;;;;;;;28.70;13.17;;;;;;;;;;4867359;29;20233;-77
2022/03/05 00:52:58;;;;;;;28.60;14.10;;;;;;;;;;5193135;27;20486;-77
2022/03/05 00:55:24;;;;;;;33.80;13.37;;;;;;;;;;5186162;27;20553;-76
2022/03/05 00:57:50;;;;;;;29.87;15.07;;;;;;;;;;5141895;27;20436;-77
2022/03/05 01:00:17;;;;;;;26.73;13.25;;;;;;;;;;5145052;27;20424;-76
2022/03/05 01:02:43;;;;;;;33.13;13.52;;;;;;;;;;5090682;28;20258;-76
2022/03/05 01:05:10;;;;;;;28.80;13.23;;;;;;;;;;5050857;28;20196;-76
2022/03/05 01:07:36;;;;;;;35.28;15.57;;;;;;;;;;4999780;28;20309;-77
2022/03/05 01:10:02;;;;;;;34.73;13.87;;;;;;;;;;4947562;28;20612;-76
2022/03/05 01:12:28;;;;;;;35.60;14.65;;;;;;;;;;4904447;28;20502;-78
2022/03/05 01:16:09;;;;;;;32.92;14.80;;;;;;;;;;5185048;27;20504;-77
2022/03/05 01:18:35;;;;;;;29.83;14.30;;;;;;;;;;5187155;27;20181;-75
2022/03/05 01:21:02;;;;;;;30.25;14.18;;;;;;;;;;5192420;27;20188;-76
2022/03/05 01:23:28;;;;;;;37.35;14.90;;;;;;;;;;5191773;27;20201;-76
2022/03/05 01:25:54;;;;;;;35.55;14.68;;;;;;;;;;5135781;27;20215;-77
2022/03/05 01:28:19;;;;;;;35.67;15.70;;;;;;;;;;5027868;28;20559;-77
2022/03/05 01:30:46;;;;;;;31.58;15.88;;;;;;;;;;4925615;28;20196;-76
2022/03/05 01:33:17;;;;;;;35.30;14.93;;;;;;;;;;4831198;29;20203;-78
2022/03/05 01:35:43;;;;;;;36.80;15.82;;;;;;;;;;4796707;29;20663;-76
2022/03/05 01:39:51;;;;;;;36.05;16.05;;;;;;;;;;5193141;27;20488;-77
2022/03/05 01:42:20;;;;;;;33.58;15.57;;;;;;;;;;5168418;27;20182;-77
2022/03/05 01:44:46;;;;;;;45.97;18.40;;;;;;;;;;5192339;27;20252;-76
2022/03/05 01:47:12;;;;;;;33.55;17.27;;;;;;;;;;5167063;27;20233;-80
2022/03/05 01:49:38;;;;;;;41.45;15.75;;;;;;;;;;5138504;27;20193;-78
2022/03/05 01:52:05;;;;;;;40.15;17.17;;;;;;;;;;5088690;28;20528;-76
2022/03/05 01:54:31;;;;;;;32.17;16.10;;;;;;;;;;5065271;28;20191;-78
2022/03/05 01:56:58;;;;;;;42.25;18.25;;;;;;;;;;5044524;28;20221;-75
2022/03/05 01:59:24;;;;;;;43.03;16.83;;;;;;;;;;4924780;28;20230;-74
2022/03/05 02:03:49;;;;;;;44.05;17.00;;;;;;;;;;5193038;27;20478;-75
2022/03/05 02:06:15;;;;;;;43.70;17.77;;;;;;;;;;5178694;27;20303;-79
2022/03/05 02:08:41;;;;;;;43.38;16.30;;;;;;;;;;5171276;27;20196;-78
2022/03/05 02:11:07;;;;;;;41.72;17.73;;;;;;;;;;5170673;27;20248;-76
2022/03/05 02:13:33;;;;;;;45.63;17.73;;;;;;;;;;5146627;27;20186;-76
2022/03/05 02:15:59;;;;;;;37.85;15.98;;;;;;;;;;5145276;27;20208;-76
2022/03/05 02:18:26;;;;;;;44.10;19.10;;;;;;;;;;5125211;27;20198;-75
2022/03/05 02:20:52;;;;;;;37.20;17.63;;;;;;;;;;5102118;28;20357;-77
2022/03/05 02:23:18;;;;;;;40.47;18.00;;;;;;;;;;4940154;28;20225;-77
2022/03/05 02:28:31;;;;;;;42.03;16.65;;;;;;;;;;5193296;27;20484;-80
2022/03/05 02:30:57;;;;;;;37.42;17.42;;;;;;;;;;5187146;27;20214;-77
2022/03/05 02:33:23;;;;;;;36.20;15.98;;;;;;;;;;5179286;27;20616;-77
2022/03/05 02:35:49;;;;;;;35.90;17.15;;;;;;;;;;5121950;27;20214;-75
2022/03/05 02:38:20;;;;;;;40.22;17.42;;;;;;;;;;5089155;28;20187;-76
2022/03/05 02:40:46;;;;;;;38.17;16.83;;;;;;;;;;5029096;28;20285;-76
2022/03/05 02:43:13;;;;;;;51.35;17.70;;;;;;;;;;4969725;28;20598;-76
2022/03/05 02:45:39;;;;;;;33.35;16.30;;;;;;;;;;4917471;29;20232;-78
2022/03/05 02:48:06;;;;;;;49.38;18.35;;;;;;;;;;4902406;29;20232;-79
2022/03/05 02:52:28;;;;;;;40.70;17.55;;;;;;;;;;5189189;27;20486;-79
2022/03/05 02:54:54;;;;;;;43.95;16.70;;;;;;;;;;5165308;27;20200;-78
2022/03/05 02:57:20;;;;;;;41.47;16.13;;;;;;;;;;5174144;27;20213;-77
2022/03/05 02:59:46;;;;;;;41.03;17.97;;;;;;;;;;5146268;27;20449;-78
2022/03/05 03:02:12;;;;;;;51.00;19.83;;;;;;;;;;5067491;28;20533;-77
2022/03/05 03:04:38;;;;;;;41.25;17.48;;;;;;;;;;5074027;28;20190;-77
2022/03/05 03:07:04;;;;;;;46.83;18.90;;;;;;;;;;5100058;27;20608;-76
2022/03/05 03:09:30;;;;;;;44.63;19.08;;;;;;;;;;5084762;28;20190;-76
2022/03/05 03:11:56;;;;;;;35.90;16.70;;;;;;;;;;4994064;28;20267;-79
2022/03/05 03:16:41;;;;;;;46.42;17.17;;;;;;;;;;5179732;27;20527;-76
2022/03/05 03:19:07;;;;;;;51.58;19.10;;;;;;;;;;5170745;27;20184;-77
2022/03/05 03:21:33;;;;;;;54.33;20.27;;;;;;;;;;5193376;27;20282;-75
2022/03/05 03:23:59;;;;;;;56.03;21.43;;;;;;;;;;5212713;27;20188;-78
2022/03/05 03:26:25;;;;;;;50.65;21.27;;;;;;;;;;5118278;27;20451;-76
2022/03/05 03:28:52;;;;;;;51.20;20.10;;;;;;;;;;5090456;28;20187;-79
2022/03/05 03:31:18;;;;;;;59.53;18.35;;;;;;;;;;5073742;28;20436;-79
2022/03/05 03:33:45;;;;;;;50.53;19.17;;;;;;;;;;5033180;28;20291;-78
2022/03/05 03:36:11;;;;;;;47.40;18.20;;;;;;;;;;4995913;28;20222;-78
2022/03/05 03:41:07;;;;;;;50.60;19.25;;;;;;;;;;5192981;27;20483;-77
2022/03/05 03:43:34;;;;;;;48.88;19.20;;;;;;;;;;5187641;27;20184;-78
2022/03/05 03:46:00;;;;;;;50.70;19.17;;;;;;;;;;5183044;27;20554;-78
2022/03/05 03:48:26;;;;;;;42.15;18.50;;;;;;;;;;5170463;27;20565;-77
2022/03/05 03:50:52;;;;;;;49.22;19.55;;;;;;;;;;5135917;27;20232;-76
2022/03/05 03:53:18;;;;;;;51.17;20.23;;;;;;;;;;5126854;28;20278;-78
2022/03/05 03:55:44;;;;;;;48.97;22.10;;;;;;;;;;5100734;28;20455;-79
2022/03/05 03:58:10;;;;;;;44.38;19.15;;;;;;;;;;5087590;28;20192;-78
2022/03/05 04:00:36;;;;;;;44.67;18.95;;;;;;;;;;4968019;28;20263;-77
2022/03/05 04:05:47;;;;;;;51.13;20.58;;;;;;;;;;5187969;27;21025;-79
2022/03/05 04:10:58;;;;;;;50.40;19.92;;;;;;;;;;5154638;27;20252;-76
2022/03/05 04:13:24;;;;;;;52.90;19.40;;;;;;;;;;5182592;27;20270;-77
2022/03/05 04:15:50;;;;;;;42.40;18.20;;;;;;;;;;5166304;27;20623;-76
2022/03/05 04:18:16;;;;;;;47.83;21.38;;;;;;;;;;5175973;27;20187;-75
2022/03/05 04:20:42;;;;;;;56.65;20.20;;;;;;;;;;5186544;27;20251;-78
2022/03/05 04:23:08;;;;;;;67.63;23.88;;;;;;;;;;5089752;27;20590;-77
2022/03/05 04:25:34;;;;;;;47.77;20.60;;;;;;;;;;5073235;28;20217;-79
2022/03/05 04:30:14;;;;;;;46.20;19.73;;;;;;;;;;5193091;27;20486;-79
2022/03/05 04:32:40;;;;;;;46.13;19.10;;;;;;;;;;5167310;27;20189;-78
2022/03/05 04:35:06;;;;;;;40.97;18.52;;;;;;;;;;5147233;27;20635;-76
2022/03/05 04:37:32;;;;;;;53.65;19.90;;;;;;;;;;5130059;27;20220;-77
2022/03/05 04:39:58;;;;;;;51.97;21.10;;;;;;;;;;5101887;28;20196;-78
2022/03/05 04:42:24;;;;;;;51.38;21.08;;;;;;;;;;5035602;28;20200;-76
2022/03/05 04:44:50;;;;;;;41.93;19.60;;;;;;;;;;5038059;28;20230;-75
2022/03/05 04:47:16;;;;;;;48.60;18.23;;;;;;;;;;5001533;28;20981;-76
2022/03/05 04:49:42;;;;;;;49.72;19.95;;;;;;;;;;4843473;29;20593;-78
2022/03/05 04:54:29;;;;;;;46.88;18.02;;;;;;;;;;5193062;27;20478;-76
2022/03/05 04:56:56;;;;;;;57.20;19.45;;;;;;;;;;5160609;27;20306;-78
2022/03/05 04:59:22;;;;;;;50.95;18.83;;;;;;;;;;5157267;27;20183;-78
2022/03/05 05:01:48;;;;;;;44.88;17.88;;;;;;;;;;5161206;27;20522;-75
2022/03/05 05:04:14;;;;;;;46.13;19.48;;;;;;;;;;5138236;27;20195;-77
2022/03/05 05:06:40;;;;;;;46.88;19.05;;;;;;;;;;5105600;28;20212;-76
2022/03/05 05:09:06;;;;;;;39.97;18.15;;;;;;;;;;5108923;28;20283;-78
2022/03/05 05:11:32;;;;;;;44.10;18.30;;;;;;;;;;5103892;28;20200;-78
2022/03/05 05:13:58;;;;;;;50.85;20.38;;;;;;;;;;5066067;28;20371;-79
2022/03/05 05:21:46;;;;;;;41.70;19.42;;;;;;;;;;5169450;27;20209;-78
2022/03/05 05:24:12;;;;;;;52.25;21.35;;;;;;;;;;5187876;27;20188;-78
2022/03/05 05:26:38;;;;;;;45.55;17.92;;;;;;;;;;5158145;27;20593;-76
2022/03/05 05:29:04;;;;;;;45.25;18.70;;;;;;;;;;5096162;28;20196;-75
2022/03/05 05:31:30;;;;;;;54.33;19.73;;;;;;;;;;5060031;28;20270;-78
2022/03/05 05:33:56;;;;;;;46.97;18.35;;;;;;;;;;5105446;28;20192;-77
2022/03/05 05:36:22;;;;;;;43.40;19.88;;;;;;;;;;5076410;28;20263;-76
2022/03/05 05:38:48;;;;;;;46.60;19.37;;;;;;;;;;4973425;28;20229;-78
2022/03/05 05:43:43;;;;;;;45.25;18.30;;;;;;;;;;5192983;27;20363;-75
2022/03/05 05:46:10;;;;;;;52.50;19.77;;;;;;;;;;5176651;27;20671;-78
2022/03/05 05:48:36;;;;;;;44.63;19.05;;;;;;;;;;5171040;27;20218;-77
2022/03/05 05:51:03;;;;;;;44.00;18.40;;;;;;;;;;5170161;27;20190;-78
2022/03/05 05:53:29;;;;;;;46.28;18.98;;;;;;;;;;5111496;28;20194;-76
2022/03/05 05:55:55;;;;;;;55.33;17.88;;;;;;;;;;5090249;28;20253;-78
2022/03/05 05:58:21;;;;;;;49.67;18.63;;;;;;;;;;5101674;28;20216;-76
2022/03/05 06:00:47;;;;;;;50.63;19.52;;;;;;;;;;5036161;28;20201;-79
2022/03/05 06:03:13;;;;;;;46.45;18.67;;;;;;;;;;4948513;28;20232;-77
2022/03/05 06:08:09;;;;;;;43.55;19.60;;;;;;;;;;5193045;27;20488;-77
2022/03/05 06:10:35;;;;;;;50.50;19.30;;;;;;;;;;5187845;27;20191;-77
2022/03/05 06:13:01;;;;;;;48.33;19.50;;;;;;;;;;5173583;27;20184;-79
2022/03/05 06:15:28;;;;;;;51.78;20.33;;;;;;;;;;5168231;27;20203;-78
2022/03/05 06:17:56;;;;;;;48.38;21.90;;;;;;;;;;5093274;28;20228;-76
2022/03/05 06:20:22;;;;;;;48.65;21.15;;;;;;;;;;5075535;28;20216;-79
2022/03/05 06:22:48;;;;;;;51.25;19.42;;;;;;;;;;5066358;28;20258;-77
2022/03/05 06:25:17;;;;;;;40.10;18.13;;;;;;;;;;5036077;28;20191;-76
2022/03/05 06:27:43;;;;;;;46.60;19.40;;;;;;;;;;4961205;28;20278;-78
2022/03/05 06:30:10;;;;;;;51.65;18.58;;;;;;;;;;4908119;28;20211;-76
2022/03/05 06:34:05;;;;;;;50.42;19.70;;;;;;;;;;5192843;27;20340;-77
2022/03/05 06:36:31;;;;;;;48.80;19.20;;;;;;;;;;5157575;27;20674;-76
2022/03/05 06:38:57;;;;;;;47.05;17.70;;;;;;;;;;5151610;27;20914;-77
2022/03/05 06:41:23;;;;;;;46.63;19.55;;;;;;;;;;5170665;27;20276;-76
2022/03/05 06:43:49;;;;;;;43.88;20.27;;;;;;;;;;5093845;28;20205;-74
2022/03/05 06:46:15;;;;;;;51.50;18.55;;;;;;;;;;5101017;28;20756;-76
2022/03/05 06:48:41;;;;;;;49.88;20.50;;;;;;;;;;5081245;28;20664;-77
2022/03/05 06:51:07;;;;;;;55.67;22.00;;;;;;;;;;5003905;28;20225;-77
2022/03/05 06:53:33;;;;;;;43.58;20.40;;;;;;;;;;4899850;29;20486;-79
2022/03/05 06:58:17;;;;;;;44.13;17.90;;;;;;;;;;5192487;27;20499;-77
2022/03/05 07:00:43;;;;;;;46.45;18.67;;;;;;;;;;5187568;27;20236;-78
2022/03/05 07:03:09;;;;;;;45.90;20.45;;;;;;;;;;5170191;27;20257;-76
2022/03/05 07:05:35;;;;;;;45.70;20.35;;;;;;;;;;5187718;27;20574;-76
2022/03/05 07:08:01;;;;;;;49.35;18.13;;;;;;;;;;5129091;27;20194;-77
2022/03/05 07:10:27;;;;;;;42.40;19.95;;;;;;;;;;5039976;28;20237;-76
2022/03/05 07:12:53;;;;;;;55.05;21.13;;;;;;;;;;5007855;28;20229;-77
2022/03/05 07:15:20;;;;;;;44.53;16.37;;;;;;;;;;5004573;28;20195;-76
2022/03/05 07:17:49;;;;;;;49.30;20.65;;;;;;;;;;4948005;28;20543;-76
2022/03/05 07:23:27;;;;;;;50.17;19.30;;;;;;;;;;5193192;27;20799;-77
2022/03/05 07:25:53;;;;;;;47.80;20.40;;;;;;;;;;5181664;27;20205;-76
2022/03/05 07:28:20;;;;;;;40.07;19.07;;;;;;;;;;5151428;27;20791;-79
2022/03/05 07:30:46;;;;;;;55.15;20.15;;;;;;;;;;5169673;27;20750;-76
2022/03/05 07:33:11;;;;;;;45.58;18.90;;;;;;;;;;5111225;28;20648;-78
2022/03/05 07:35:37;;;;;;;47.65;18.85;;;;;;;;;;5067929;28;20221;-78
2022/03/05 07:38:03;;;;;;;47.75;20.95;;;;;;;;;;5066077;28;20206;-76
2022/03/05 07:40:29;;;;;;;39.63;17.70;;;;;;;;;;5027084;28;20605;-78
2022/03/05 07:42:56;;;;;;;50.03;20.80;;;;;;;;;;4995821;28;20254;-77
2022/03/05 07:47:54;;;;;;;39.90;19.42;;;;;;;;;;5192995;27;20294;-76
2022/03/05 07:50:21;;;;;;;43.10;17.60;;;;;;;;;;5187552;27;20185;-78
2022/03/05 07:52:47;;;;;;;43.30;18.23;;;;;;;;;;5192162;27;20269;-76
2022/03/05 07:55:13;;;;;;;43.90;17.80;;;;;;;;;;5191316;27;20188;-77
2022/03/05 07:57:39;;;;;;;37.03;17.00;;;;;;;;;;5138959;27;20215;-79
2022/03/05 08:00:06;;;;;;;43.13;16.23;;;;;;;;;;5105061;28;20632;-76
2022/03/05 08:02:32;;;;;;;36.75;17.88;;;;;;;;;;5090440;28;20196;-76
2022/03/05 08:04:58;;;;;;;44.35;19.55;;;;;;;;;;5113124;27;20549;-77
2022/03/05 08:07:24;;;;;;;48.95;19.15;;;;;;;;;;5138981;27;20611;-78
2022/03/05 08:12:20;;;;;;;40.15;19.60;;;;;;;;;;5192927;27;20488;-77
2022/03/05 08:14:47;;;;;;;38.78;18.55;;;;;;;;;;5187239;27;20185;-75
2022/03/05 08:17:14;;;;;;;47.38;19.70;;;;;;;;;;5155051;27;20254;-79
2022/03/05 08:19:40;;;;;;;43.15;18.90;;;;;;;;;;5144705;27;20538;-77
2022/03/05 08:22:06;;;;;;;44.80;19.52;;;;;;;;;;5099178;27;20216;-76
2022/03/05 08:24:32;;;;;;;42.65;18.98;;;;;;;;;;5096130;28;20192;-78
2022/03/05 08:26:58;;;;;;;38.97;18.30;;;;;;;;;;5059842;28;20294;-79
2022/03/05 08:29:24;;;;;;;44.83;21.27;;;;;;;;;;5012998;28;20212;-78
2022/03/05 08:31:50;;;;;;;39.10;17.85;;;;;;;;;;4960549;28;20563;-76
2022/03/05 08:36:16;;;;;;;41.63;17.27;;;;;;;;;;5183846;27;20327;-78
2022/03/05 08:38:42;;;;;;;44.60;20.03;;;;;;;;;;5185664;27;20180;-76
2022/03/05 08:41:08;;;;;;;40.20;19.58;;;;;;;;;;5192092;27;20430;-78
2022/03/05 08:43:34;;;;;;;45.50;19.85;;;;;;;;;;5169464;27;20189;-74
2022/03/05 08:46:01;;;;;;;45.22;19.83;;;;;;;;;;5109915;27;20220;-77
2022/03/05 08:48:27;;;;;;;38.17;16.92;;;;;;;;;;5047628;28;20687;-78
2022/03/05 08:50:53;;;;;;;39.83;16.10;;;;;;;;;;5033525;28;20236;-78
2022/03/05 08:53:19;;;;;;;46.63;20.30;;;;;;;;;;4909951;28;20231;-77
2022/03/05 08:55:45;;;;;;;40.57;19.20;;;;;;;;;;4841396;29;20503;-79
2022/03/05 08:59:27;;;;;;;36.97;17.73;;;;;;;;;;5193043;27;20987;-78
2022/03/05 09:01:53;;;;;;;33.55;17.50;;;;;;;;;;5168668;27;20637;-74
2022/03/05 09:04:19;;;;;;;35.50;18.52;;;;;;;;;;5192613;27;20271;-78
2022/03/05 09:06:45;;;;;;;33.28;16.33;;;;;;;;;;5178206;27;20277;-78
2022/03/05 09:09:11;;;;;;;30.08;15.43;;;;;;;;;;5129376;27;20197;-77
2022/03/05 09:11:38;;;;;;;36.83;17.80;;;;;;;;;;5090718;28;20193;-76
2022/03/05 09:14:04;;;;;;;39.45;18.42;;;;;;;;;;5114355;27;20190;-75
2022/03/05 09:16:31;;;;;;;34.72;16.02;;;;;;;;;;5057846;28;20230;-77
2022/03/05 09:18:57;;;;;;;33.15;17.15;;;;;;;;;;4932155;28;20233;-79
2022/03/05 09:23:38;;;;;;;30.60;15.85;;;;;;;;;;5179146;22;20594;-75
2022/03/05 09:26:04;;;;;;;31.42;17.48;;;;;;;;;;5149829;27;20213;-76
2022/03/05 09:28:30;;;;;;;32.15;17.77;;;;;;;;;;5149872;27;20186;-75
2022/03/05 09:30:58;;;;;;;28.30;15.30;;;;;;;;;;5149401;27;20190;-78
2022/03/05 09:33:24;;;;;;;36.00;18.30;;;;;;;;;;5137749;27;20425;-74
2022/03/05 09:35:50;;;;;;;34.40;17.60;;;;;;;;;;5076216;28;20223;-75
2022/03/05 09:38:16;;;;;;;30.57;16.60;;;;;;;;;;5072038;28;20948;-74
2022/03/05 09:40:42;;;;;;;29.57;16.87;;;;;;;;;;5014638;28;20431;-76
2022/03/05 09:44:59;;;;;;;29.50;17.27;;;;;;;;;;5192358;27;21014;-76
2022/03/05 09:47:26;;;;;;;30.27;16.60;;;;;;;;;;5168684;27;20439;-73
2022/03/05 09:49:53;;;;;;;29.87;16.60;;;;;;;;;;5171004;27;20430;-76
2022/03/05 09:52:19;;;;;;;30.63;17.50;;;;;;;;;;5156698;27;20957;-75
2022/03/05 09:54:45;;;;;;;31.60;18.57;;;;;;;;;;5140347;27;20432;-76
2022/03/05 09:57:12;;;;;;;28.33;16.77;;;;;;;;;;5127109;27;20449;-77
2022/03/05 09:59:39;;;;;;;36.60;17.57;;;;;;;;;;5087956;28;20434;-73
2022/03/05 10:02:05;;;;;;;31.33;17.70;;;;;;;;;;5004480;28;20497;-75
2022/03/05 10:04:32;;;;;;;35.23;18.30;;;;;;;;;;4921808;28;20511;-75
2022/03/05 10:08:00;;;;;;;31.60;18.60;;;;;;;;;;5150117;27;20493;-77
2022/03/05 10:10:26;;;;;;;30.70;16.43;;;;;;;;;;5152182;27;20422;-75
2022/03/05 10:12:52;;;;;;;31.30;17.63;;;;;;;;;;5170737;27;20438;-74
2022/03/05 10:15:20;;;;;;;26.60;16.70;;;;;;;;;;5169157;27;20410;-74
2022/03/05 10:17:52;;;;;;;30.10;17.70;;;;;;;;;;5146977;27;20772;-74
2022/03/05 10:20:19;;;;;;;25.93;17.17;;;;;;;;;;5146075;27;20399;-75
2022/03/05 10:23:12;;;;;;;28.73;16.57;;;;;;;;;;5081722;28;20452;-74
2022/03/05 10:25:39;;;;;;;30.70;18.33;;;;;;;;;;4802981;29;20556;-76
2022/03/05 10:29:35;;;;;;;23.13;15.70;;;;;;;;;;5192527;27;20488;-74
2022/03/05 10:32:02;;;;;;;24.63;15.77;;;;;;;;;;5154922;27;20552;-76
2022/03/05 10:34:48;;;;;;;31.65;19.17;;;;;;;;;;5185614;27;20220;-73
2022/03/05 10:37:14;;;;;;;26.80;16.90;;;;;;;;;;5155096;27;20209;-75
2022/03/05 10:39:40;;;;;;;27.10;16.40;;;;;;;;;;5127118;27;20400;-76
2022/03/05 10:42:16;;;;;;;26.08;15.10;;;;;;;;;;5121001;28;20435;-75
2022/03/05 10:44:42;;;;;;;28.83;16.70;;;;;;;;;;5084396;27;20188;-74
2022/03/05 10:47:08;;;;;;;29.90;15.68;;;;;;;;;;4942634;28;20497;-76
2022/03/05 10:49:38;;;;;;;24.77;16.50;;;;;;;;;;4836988;29;20200;-75
2022/03/05 10:53:34;;;;;;;26.87;15.03;;;;;;;;;;5192620;27;20818;-77
2022/03/05 10:56:19;;;;;;;23.90;15.50;;;;;;;;;;5152839;27;20451;-77
2022/03/05 10:58:56;;;;;;;27.10;15.47;;;;;;;;;;5154313;27;20810;-76
2022/03/05 11:01:22;;;;;;;24.13;14.63;;;;;;;;;;5139171;27;20761;-78
2022/03/05 11:03:49;;;;;;;22.40;14.33;;;;;;;;;;5068765;28;20928;-75
2022/03/05 11:06:15;;;;;;;23.20;15.10;;;;;;;;;;5011577;28;20880;-77
2022/03/05 11:08:41;;;;;;;25.60;16.30;;;;;;;;;;5005413;28;20424;-77
2022/03/05 11:11:07;;;;;;;27.60;16.53;;;;;;;;;;4925185;28;20477;-76
2022/03/05 11:13:33;;;;;;;23.03;13.80;;;;;;;;;;4886528;29;20451;-77
2022/03/05 11:17:35;;;;;;;23.70;15.27;;;;;;;;;;5172530;27;20503;-75
2022/03/05 11:20:02;;;;;;;23.00;15.43;;;;;;;;;;5170541;27;20415;-75
2022/03/05 11:22:28;;;;;;;21.03;14.50;;;;;;;;;;5192145;27;20422;-77
2022/03/05 11:24:54;;;;;;;25.80;16.77;;;;;;;;;;5151768;27;20531;-75
2022/03/05 11:27:21;;;;;;;21.57;14.20;;;;;;;;;;5107492;27;20463;-78
2022/03/05 11:30:00;;;;;;;25.50;15.80;;;;;;;;;;5005609;28;20490;-76
2022/03/05 11:32:30;;;;;;;21.20;13.47;;;;;;;;;;4957935;28;20450;-76
2022/03/05 11:34:56;;;;;;;20.67;14.93;;;;;;;;;;4914198;29;20411;-75
2022/03/05 11:39:48;;;;;;;20.23;12.50;;;;;;;;;;5171311;27;20292;-74
2022/03/05 11:42:27;;;;;;;19.83;14.47;;;;;;;;;;5173869;27;20799;-77
2022/03/05 11:44:53;;;;;;;24.37;14.63;;;;;;;;;;5128306;27;20421;-76
2022/03/05 11:47:19;;;;;;;17.27;12.70;;;;;;;;;;5150771;27;20542;-77
2022/03/05 11:49:58;;;;;;;18.20;13.00;;;;;;;;;;5095542;28;20522;-75
2022/03/05 11:52:46;;;;;;;21.27;12.70;;;;;;;;;;5034677;28;20439;-77
2022/03/05 11:55:16;;;;;;;16.80;12.63;;;;;;;;;;4992711;28;20437;-78
2022/03/05 11:57:43;;;;;;;17.00;12.40;;;;;;;;;;5005350;28;20483;-77
2022/03/05 12:02:47;;;;;;;18.90;14.13;;;;;;;;;;5192938;27;20485;-76
2022/03/05 12:05:51;;;;;;;18.47;12.23;;;;;;;;;;5187523;27;20419;-76
2022/03/05 12:08:24;;;;;;;19.40;12.53;;;;;;;;;;5079532;28;20930;-76
2022/03/05 12:11:08;;;;;;;19.67;11.43;;;;;;;;;;5064319;28;20502;-77
2022/03/05 12:13:39;;;;;;;19.30;12.90;;;;;;;;;;4956747;28;20500;-76
2022/03/05 12:16:13;;;;;;;16.57;12.13;;;;;;;;;;4790227;29;20462;-76
2022/03/05 12:18:40;;;;;;;16.60;11.00;;;;;;;;;;4810604;29;20800;-76
2022/03/05 12:21:06;;;;;;;15.07;10.80;;;;;;;;;;4822033;29;20473;-76
2022/03/05 12:23:32;;;;;;;14.90;11.30;;;;;;;;;;4744485;29;20809;-76
2022/03/05 12:27:59;;;;;;;14.83;11.43;;;;;;;;;;5192552;27;20480;-74
2022/03/05 12:30:27;;;;;;;13.23;10.47;;;;;;;;;;5187206;27;20434;-77
2022/03/05 12:32:55;;;;;;;18.83;11.43;;;;;;;;;;5166897;27;20799;-74
2022/03/05 12:35:21;;;;;;;14.07;11.40;;;;;;;;;;5175664;27;20992;-75
2022/03/05 12:37:48;;;;;;;12.67;9.60;;;;;;;;;;5145079;27;20423;-75
2022/03/05 12:40:14;;;;;;;14.70;11.00;;;;;;;;;;5021141;28;20432;-76
2022/03/05 12:42:45;;;;;;;12.77;10.33;;;;;;;;;;4980690;28;20441;-75
2022/03/05 12:45:19;;;;;;;15.20;11.13;;;;;;;;;;4970924;28;20440;-75
2022/03/05 12:47:45;;;;;;;13.33;10.80;;;;;;;;;;4817174;29;20497;-75
2022/03/05 12:51:57;;;;;;;14.93;10.93;;;;;;;;;;5178524;27;20494;-76
2022/03/05 12:54:23;;;;;;;15.07;10.17;;;;;;;;;;5170717;27;20467;-77
2022/03/05 12:56:54;;;;;;;13.80;10.10;;;;;;;;;;5177944;27;20411;-75
2022/03/05 12:59:20;;;;;;;14.20;10.23;;;;;;;;;;5170397;27;20426;-74
2022/03/05 13:01:51;;;;;;;15.57;10.03;;;;;;;;;;5101793;27;20440;-74
2022/03/05 13:04:18;;;;;;;16.10;11.13;;;;;;;;;;5055638;28;20437;-74
2022/03/05 13:06:47;;;;;;;14.93;11.57;;;;;;;;;;5071909;28;20455;-75
2022/03/05 13:09:16;;;;;;;17.30;12.33;;;;;;;;;;4964528;28;20436;-75
2022/03/05 13:14:22;;;;;;;14.50;11.87;;;;;;;;;;5194900;27;20485;-78
2022/03/05 13:16:50;;;;;;;14.67;11.27;;;;;;;;;;5173785;27;20418;-74
2022/03/05 13:19:16;;;;;;;16.63;11.23;;;;;;;;;;5186181;27;21949;-77
2022/03/05 13:21:52;;;;;;;15.27;10.90;;;;;;;;;;5170616;27;20441;-78
2022/03/05 13:24:19;;;;;;;13.37;10.70;;;;;;;;;;5153701;27;20478;-76
2022/03/05 13:26:46;;;;;;;15.63;11.53;;;;;;;;;;5103110;28;20470;-78
2022/03/05 13:29:12;;;;;;;14.70;10.63;;;;;;;;;;5115404;27;20530;-75
2022/03/05 13:31:38;;;;;;;15.10;11.07;;;;;;;;;;5060203;28;20433;-76
2022/03/05 13:36:42;;;;;;;15.40;10.57;;;;;;;;;;5178372;27;20506;-78
2022/03/05 13:39:08;;;;;;;16.10;10.90;;;;;;;;;;5170682;27;20515;-74
2022/03/05 13:41:34;;;;;;;12.13;10.10;;;;;;;;;;5188986;27;20449;-76
2022/03/05 13:44:04;;;;;;;14.87;9.60;;;;;;;;;;5170422;27;20448;-76
2022/03/05 13:46:30;;;;;;;12.60;8.50;;;;;;;;;;5094940;28;20462;-76
2022/03/05 13:48:58;;;;;;;13.20;9.70;;;;;;;;;;4992938;28;20918;-75
2022/03/05 13:51:25;;;;;;;12.20;10.47;;;;;;;;;;4958959;28;20429;-74
2022/03/05 13:53:56;;;;;;;13.57;9.73;;;;;;;;;;4906101;29;20928;-75
2022/03/05 13:56:22;;;;;;;14.00;10.30;;;;;;;;;;4873760;29;20505;-77
2022/03/05 14:00:24;;;;;;;14.07;10.30;;;;;;;;;;5192273;27;20484;-76
2022/03/05 14:02:51;;;;;;;18.47;12.30;;;;;;;;;;5167627;27;20514;-75
2022/03/05 14:05:22;;;;;;;16.03;11.67;;;;;;;;;;5191046;27;20499;-76
2022/03/05 14:07:49;;;;;;;15.73;11.23;;;;;;;;;;5167147;27;20393;-74
2022/03/05 14:10:16;;;;;;;13.50;10.50;;;;;;;;;;5120104;27;20430;-76
2022/03/05 14:12:46;;;;;;;12.43;10.60;;;;;;;;;;5045796;28;20943;-78
2022/03/05 14:15:13;;;;;;;16.20;11.67;;;;;;;;;;5097034;28;20407;-77
2022/03/05 14:17:43;;;;;;;14.67;10.63;;;;;;;;;;5005476;28;20518;-75
2022/03/05 14:20:13;;;;;;;13.93;10.57;;;;;;;;;;4808026;29;20501;-76
2022/03/05 14:23:50;;;;;;;15.77;11.70;;;;;;;;;;5192810;27;20834;-75
2022/03/05 14:26:18;;;;;;;18.13;12.27;;;;;;;;;;5142278;27;20452;-78
2022/03/05 14:28:44;;;;;;;14.53;11.37;;;;;;;;;;5170715;27;20945;-76
2022/03/05 14:31:11;;;;;;;15.03;11.20;;;;;;;;;;5169833;27;20483;-77
2022/03/05 14:33:38;;;;;;;13.67;10.37;;;;;;;;;;5103942;27;20494;-77
2022/03/05 14:36:04;;;;;;;13.97;10.23;;;;;;;;;;5039387;28;20524;-77
2022/03/05 14:38:30;;;;;;;13.10;10.83;;;;;;;;;;5004998;28;20465;-77
2022/03/05 14:40:57;;;;;;;14.20;10.77;;;;;;;;;;4881306;28;20991;-76
2022/03/05 14:46:04;;;;;;;16.30;11.70;;;;;;;;;;5185589;27;20506;-77
2022/03/05 14:48:31;;;;;;;13.13;10.87;;;;;;;;;;5168804;27;20828;-77
2022/03/05 14:50:57;;;;;;;13.50;9.93;;;;;;;;;;5212112;27;20818;-79
2022/03/05 14:53:23;;;;;;;14.27;10.60;;;;;;;;;;5212013;27;20778;-76
2022/03/05 14:55:49;;;;;;;11.13;8.50;;;;;;;;;;5194714;27;20508;-76
2022/03/05 14:58:15;;;;;;;11.90;9.07;;;;;;;;;;5188673;27;20445;-77
2022/03/05 15:00:41;;;;;;;10.97;9.07;;;;;;;;;;5147659;27;20441;-78
2022/03/05 15:03:08;;;;;;;11.97;8.63;;;;;;;;;;4976747;28;20429;-75
2022/03/05 15:05:34;;;;;;;12.87;9.93;;;;;;;;;;4897694;29;20507;-76
2022/03/05 15:10:15;;;;;;;10.80;8.60;;;;;;;;;;5193008;27;20486;-78
2022/03/05 15:12:41;;;;;;;11.30;8.87;;;;;;;;;;5185743;27;20829;-75
2022/03/05 15:15:08;;;;;;;11.70;9.23;;;;;;;;;;5171521;27;20627;-76
2022/03/05 15:17:34;;;;;;;13.00;8.37;;;;;;;;;;5171509;27;20445;-76
2022/03/05 15:20:00;;;;;;;11.93;7.90;;;;;;;;;;5113430;27;20516;-74
2022/03/05 15:22:26;;;;;;;13.57;11.00;;;;;;;;;;5130203;27;20551;-76
2022/03/05 15:24:52;;;;;;;13.10;8.23;;;;;;;;;;5057258;27;20436;-76
2022/03/05 15:27:18;;;;;;;8.77;7.40;;;;;;;;;;4971729;28;20467;-76
2022/03/05 15:29:44;;;;;;;11.80;9.43;;;;;;;;;;4768507;29;20508;-76
2022/03/05 15:33:11;;;;;;;9.73;7.13;;;;;;;;;;5150167;27;20491;-78
2022/03/05 15:35:38;;;;;;;9.23;7.47;;;;;;;;;;5142544;27;20793;-76
2022/03/05 15:38:04;;;;;;;10.57;7.50;;;;;;;;;;5129687;28;20946;-78
2022/03/05 15:40:30;;;;;;;10.80;7.90;;;;;;;;;;5129046;28;20439;-77
2022/03/05 15:42:56;;;;;;;8.70;7.30;;;;;;;;;;5087749;28;20457;-77
2022/03/05 15:45:22;;;;;;;9.83;7.10;;;;;;;;;;5033945;28;20477;-77
2022/03/05 15:47:48;;;;;;;8.83;7.27;;;;;;;;;;5061508;28;20915;-76